»·PEaware :: PACER38 KSNA-KIWA

PACER38 :: KSNA-KIWA

FLIGHT INFORMATION

Flight Status: Arrived
Operator: Unknown
More flights by this operator :: More flights under this callsign
Pilot: Anonymous 2822 (2822)
Aircraft: NORTHROP T-38 AT-38 TALON
(T38)
More flights by this aircraft type
Origin: KSNA John Wayne-Orange Co
United States
Destination: KIWA Williams Gateway
United States
More flights between these airports :: More routes between these airports
Route: +MUSEL8 TRM J169 BLH ARLIN4
File this flight plan on PilotEdge
Remarks:
Altitude:
(Current/Filed)
27,000ft
Speed:
(Current/Filed)
578kts
Departed: 19-Nov-17 04:49 PM
Arrived: 19-Nov-17 05:31 PM
Distance/Time
Traveled:
311nm/0:42
Distance/Time
To Go:
Arrived

Flight Plot

Page will automatically refresh every two minutes.

Flight plan parsing failed; only flown route is shown


Map Options




Map Legend


Flown Route
Filed Route
Departure Airport
Arrival Airport
Navaid (VOR, NDB)
Fix

Horizontal Profiles

Position Reports

Time Latitude Longitude Heading Altitude Ground
Speed
19-Nov-17 16:37 33.676732 -117.870847 115 59ft 0kts
19-Nov-17 16:38 33.676732 -117.870847 115 59ft 0kts
19-Nov-17 16:39 33.676732 -117.870847 115 59ft 0kts
19-Nov-17 16:40 33.676732 -117.870847 115 59ft 0kts
19-Nov-17 16:41 33.676732 -117.870847 115 59ft 0kts
19-Nov-17 16:42 33.676732 -117.870847 115 59ft 0kts
19-Nov-17 16:43 33.676731 -117.870845 115 59ft 0kts
19-Nov-17 16:44 33.676730 -117.870843 115 59ft 0kts
19-Nov-17 16:45 33.676730 -117.870843 115 59ft 0kts
19-Nov-17 16:46 33.676730 -117.870843 115 59ft 0kts
19-Nov-17 16:47 33.676730 -117.870843 115 59ft 0kts
19-Nov-17 16:48 33.676729 -117.870841 115 59ft 0kts
19-Nov-17 16:49 33.676450 -117.870031 90 59ft 7kts
19-Nov-17 16:50 33.678747 -117.868421 27 59ft 11kts
19-Nov-17 16:51 33.681729 -117.866707 40 59ft 8kts
19-Nov-17 16:52 33.681917 -117.866069 100 59ft 0kts
19-Nov-17 16:53 33.681704 -117.865513 117 59ft 8kts
19-Nov-17 16:54 33.674251 -117.869755 207 61ft 170kts
19-Nov-17 16:55 33.589198 -117.902413 190 3314ft 299kts
19-Nov-17 16:56 33.518041 -117.912835 165 5587ft 322kts
19-Nov-17 16:57 33.491028 -117.804217 84 9176ft 331kts
19-Nov-17 16:58 33.498360 -117.710991 84 12126ft 339kts
19-Nov-17 16:59 33.507534 -117.573623 85 16007ft 374kts
19-Nov-17 17:00 33.515255 -117.466057 84 18647ft 404kts
19-Nov-17 17:01 33.526178 -117.327774 84 21758ft 425kts
19-Nov-17 17:02 33.537691 -117.183921 84 24531ft 444kts
19-Nov-17 17:03 33.549938 -117.033443 84 26880ft 464kts
19-Nov-17 17:04 33.563534 -116.869540 84 27038ft 519kts
19-Nov-17 17:05 33.578640 -116.691059 84 27013ft 556kts
19-Nov-17 17:06 33.595293 -116.504961 83 27018ft 565kts
19-Nov-17 17:07 33.613963 -116.317167 82 27028ft 566kts
19-Nov-17 17:08 33.628101 -116.129275 92 27011ft 567kts
19-Nov-17 17:09 33.624495 -115.940552 90 27027ft 567kts
19-Nov-17 17:10 33.622149 -115.749813 90 25717ft 579kts
19-Nov-17 17:11 33.621732 -115.555899 89 23406ft 579kts
19-Nov-17 17:12 33.618803 -115.364167 91 23026ft 569kts
19-Nov-17 17:13 33.613093 -115.173865 92 23010ft 573kts
19-Nov-17 17:14 33.604930 -114.983182 93 22977ft 574kts
19-Nov-17 17:15 33.596967 -114.791549 92 22984ft 574kts
19-Nov-17 17:16 33.568646 -114.604095 105 22996ft 574kts
19-Nov-17 17:17 33.532957 -114.417907 103 23025ft 574kts
19-Nov-17 17:18 33.496186 -114.231372 103 23020ft 574kts
19-Nov-17 17:19 33.459058 -114.045540 103 23032ft 574kts
19-Nov-17 17:20 33.424111 -113.858492 102 23015ft 574kts
19-Nov-17 17:21 33.390045 -113.671902 101 23051ft 574kts
19-Nov-17 17:22 33.356595 -113.485272 101 23027ft 575kts
19-Nov-17 17:23 33.323980 -113.295621 101 21075ft 585kts
19-Nov-17 17:24 33.299847 -113.104098 87 19298ft 583kts
19-Nov-17 17:25 33.307477 -112.910051 87 17178ft 590kts
19-Nov-17 17:26 33.310322 -112.711933 90 14100ft 593kts
19-Nov-17 17:27 33.304471 -112.518229 93 13656ft 580kts
19-Nov-17 17:28 33.293850 -112.326041 93 12089ft 575kts
19-Nov-17 17:29 33.292694 -112.136458 88 10186ft 562kts
19-Nov-17 17:30 33.296123 -112.013056 87 10000ft 336kts
19-Nov-17 17:31 33.293155 -111.903868 92 8572ft 319kts
19-Nov-17 17:32 33.298389 -111.797115 85 5617ft 326kts
19-Nov-17 17:33 33.297573 -111.692032 122 3028ft 287kts
19-Nov-17 17:34 33.263567 -111.636680 69 2376ft 202kts
19-Nov-17 17:35 33.300849 -111.653222 315 1386ft 126kts
19-Nov-17 17:36 33.310868 -111.665079 303 1386ft 13kts
19-Nov-17 17:37 33.310757 -111.666086 229 1386ft 0kts
19-Nov-17 17:38 33.310755 -111.666088 229 1386ft 0kts

Navigation Log

Ident Type
Flight plan parsing failed, navigation log unavailable